sensor_id;sensor_type;location;lat;lon;timestamp;P1;durP1;ratioP1;P2;durP2;ratioP2
59147;SDS011;44930;52.878;6.168;2023-11-22T00:00:09;15.27;;;11.13;;
59147;SDS011;44930;52.878;6.168;2023-11-22T00:02:36;15.82;;;10.27;;
59147;SDS011;44930;52.878;6.168;2023-11-22T00:05:02;14.70;;;10.20;;
59147;SDS011;44930;52.878;6.168;2023-11-22T00:07:28;14.10;;;9.65;;
59147;SDS011;44930;52.878;6.168;2023-11-22T00:09:54;13.50;;;10.63;;
59147;SDS011;44930;52.878;6.168;2023-11-22T00:12:20;18.55;;;10.85;;
59147;SDS011;44930;52.878;6.168;2023-11-22T00:14:48;14.75;;;9.40;;
59147;SDS011;44930;52.878;6.168;2023-11-22T00:17:14;12.63;;;9.00;;
59147;SDS011;44930;52.878;6.168;2023-11-22T00:19:39;17.10;;;9.02;;
59147;SDS011;44930;52.878;6.168;2023-11-22T00:22:05;14.23;;;9.15;;
59147;SDS011;44930;52.878;6.168;2023-11-22T00:24:38;14.35;;;10.43;;
59147;SDS011;44930;52.878;6.168;2023-11-22T00:27:04;14.15;;;9.35;;
59147;SDS011;44930;52.878;6.168;2023-11-22T00:29:30;15.00;;;9.70;;
59147;SDS011;44930;52.878;6.168;2023-11-22T00:31:55;14.85;;;10.63;;
59147;SDS011;44930;52.878;6.168;2023-11-22T00:34:21;16.00;;;10.45;;
59147;SDS011;44930;52.878;6.168;2023-11-22T00:36:48;11.13;;;8.18;;
59147;SDS011;44930;52.878;6.168;2023-11-22T00:39:14;11.35;;;8.10;;
59147;SDS011;44930;52.878;6.168;2023-11-22T00:41:39;11.57;;;8.77;;
59147;SDS011;44930;52.878;6.168;2023-11-22T00:44:05;11.77;;;8.40;;
59147;SDS011;44930;52.878;6.168;2023-11-22T00:46:31;15.02;;;9.00;;
59147;SDS011;44930;52.878;6.168;2023-11-22T00:48:57;10.70;;;8.75;;
59147;SDS011;44930;52.878;6.168;2023-11-22T00:51:23;17.85;;;9.63;;
59147;SDS011;44930;52.878;6.168;2023-11-22T00:53:49;10.35;;;7.80;;
59147;SDS011;44930;52.878;6.168;2023-11-22T00:56:16;12.40;;;9.15;;
59147;SDS011;44930;52.878;6.168;2023-11-22T00:58:42;12.95;;;9.40;;
59147;SDS011;44930;52.878;6.168;2023-11-22T01:01:08;10.95;;;8.30;;
59147;SDS011;44930;52.878;6.168;2023-11-22T01:03:34;12.38;;;8.50;;
59147;SDS011;44930;52.878;6.168;2023-11-22T01:06:00;14.27;;;8.50;;
59147;SDS011;44930;52.878;6.168;2023-11-22T01:08:26;12.63;;;8.65;;
59147;SDS011;44930;52.878;6.168;2023-11-22T01:10:52;12.30;;;8.27;;
59147;SDS011;44930;52.878;6.168;2023-11-22T01:13:18;12.45;;;8.05;;
59147;SDS011;44930;52.878;6.168;2023-11-22T01:15:43;12.18;;;9.15;;
59147;SDS011;44930;52.878;6.168;2023-11-22T01:18:12;11.70;;;8.50;;
59147;SDS011;44930;52.878;6.168;2023-11-22T01:20:38;11.15;;;7.82;;
59147;SDS011;44930;52.878;6.168;2023-11-22T01:23:03;16.40;;;9.20;;
59147;SDS011;44930;52.878;6.168;2023-11-22T01:25:29;9.82;;;7.88;;
59147;SDS011;44930;52.878;6.168;2023-11-22T01:27:54;11.82;;;8.23;;
59147;SDS011;44930;52.878;6.168;2023-11-22T01:30:20;10.55;;;7.88;;
59147;SDS011;44930;52.878;6.168;2023-11-22T01:32:47;14.73;;;8.38;;
59147;SDS011;44930;52.878;6.168;2023-11-22T01:35:14;12.02;;;8.13;;
59147;SDS011;44930;52.878;6.168;2023-11-22T01:37:40;15.07;;;9.68;;
59147;SDS011;44930;52.878;6.168;2023-11-22T01:40:07;14.05;;;9.13;;
59147;SDS011;44930;52.878;6.168;2023-11-22T01:42:33;12.82;;;7.95;;
59147;SDS011;44930;52.878;6.168;2023-11-22T01:45:01;12.15;;;8.40;;
59147;SDS011;44930;52.878;6.168;2023-11-22T01:47:27;12.20;;;8.35;;
59147;SDS011;44930;52.878;6.168;2023-11-22T01:49:54;12.45;;;9.25;;
59147;SDS011;44930;52.878;6.168;2023-11-22T01:52:22;14.77;;;8.40;;
59147;SDS011;44930;52.878;6.168;2023-11-22T01:54:47;16.65;;;8.07;;
59147;SDS011;44930;52.878;6.168;2023-11-22T01:57:13;13.35;;;8.23;;
59147;SDS011;44930;52.878;6.168;2023-11-22T01:59:39;11.55;;;7.95;;
59147;SDS011;44930;52.878;6.168;2023-11-22T02:02:06;12.88;;;9.85;;
59147;SDS011;44930;52.878;6.168;2023-11-22T02:04:32;15.40;;;9.85;;
59147;SDS011;44930;52.878;6.168;2023-11-22T02:06:57;13.90;;;8.55;;
59147;SDS011;44930;52.878;6.168;2023-11-22T02:09:23;12.50;;;8.80;;
59147;SDS011;44930;52.878;6.168;2023-11-22T02:11:50;12.05;;;8.00;;
59147;SDS011;44930;52.878;6.168;2023-11-22T02:14:15;11.18;;;8.35;;
59147;SDS011;44930;52.878;6.168;2023-11-22T02:16:41;14.18;;;8.73;;
59147;SDS011;44930;52.878;6.168;2023-11-22T02:19:07;13.82;;;8.85;;
59147;SDS011;44930;52.878;6.168;2023-11-22T02:21:39;15.32;;;9.00;;
59147;SDS011;44930;52.878;6.168;2023-11-22T02:24:05;13.00;;;8.45;;
59147;SDS011;44930;52.878;6.168;2023-11-22T02:26:32;14.52;;;9.27;;
59147;SDS011;44930;52.878;6.168;2023-11-22T02:28:58;15.10;;;9.13;;
59147;SDS011;44930;52.878;6.168;2023-11-22T02:31:24;14.85;;;8.82;;
59147;SDS011;44930;52.878;6.168;2023-11-22T02:33:52;12.73;;;8.88;;
59147;SDS011;44930;52.878;6.168;2023-11-22T02:36:18;15.15;;;9.00;;
59147;SDS011;44930;52.878;6.168;2023-11-22T02:38:43;12.48;;;8.80;;
59147;SDS011;44930;52.878;6.168;2023-11-22T02:41:11;10.48;;;6.72;;
59147;SDS011;44930;52.878;6.168;2023-11-22T02:43:36;10.88;;;7.32;;
59147;SDS011;44930;52.878;6.168;2023-11-22T02:46:02;7.90;;;5.90;;
59147;SDS011;44930;52.878;6.168;2023-11-22T02:48:29;9.30;;;6.95;;
59147;SDS011;44930;52.878;6.168;2023-11-22T02:50:54;9.85;;;6.68;;
59147;SDS011;44930;52.878;6.168;2023-11-22T02:53:20;11.20;;;7.45;;
59147;SDS011;44930;52.878;6.168;2023-11-22T02:55:46;12.18;;;7.72;;
59147;SDS011;44930;52.878;6.168;2023-11-22T02:58:12;14.07;;;8.35;;
59147;SDS011;44930;52.878;6.168;2023-11-22T03:00:39;14.40;;;9.13;;
59147;SDS011;44930;52.878;6.168;2023-11-22T03:03:06;15.27;;;9.70;;
59147;SDS011;44930;52.878;6.168;2023-11-22T03:05:35;16.40;;;9.07;;
59147;SDS011;44930;52.878;6.168;2023-11-22T03:08:05;15.63;;;9.95;;
59147;SDS011;44930;52.878;6.168;2023-11-22T03:10:32;12.82;;;8.68;;
59147;SDS011;44930;52.878;6.168;2023-11-22T03:12:58;15.88;;;9.93;;
59147;SDS011;44930;52.878;6.168;2023-11-22T03:15:24;17.15;;;9.77;;
59147;SDS011;44930;52.878;6.168;2023-11-22T03:17:50;14.38;;;9.07;;
59147;SDS011;44930;52.878;6.168;2023-11-22T03:20:16;15.40;;;10.57;;
59147;SDS011;44930;52.878;6.168;2023-11-22T03:22:42;14.07;;;9.02;;
59147;SDS011;44930;52.878;6.168;2023-11-22T03:25:09;15.32;;;9.45;;
59147;SDS011;44930;52.878;6.168;2023-11-22T03:27:35;10.68;;;7.40;;
59147;SDS011;44930;52.878;6.168;2023-11-22T03:30:02;13.63;;;8.20;;
59147;SDS011;44930;52.878;6.168;2023-11-22T03:32:28;18.08;;;10.73;;
59147;SDS011;44930;52.878;6.168;2023-11-22T03:34:54;15.60;;;9.63;;
59147;SDS011;44930;52.878;6.168;2023-11-22T03:37:20;13.32;;;8.50;;
59147;SDS011;44930;52.878;6.168;2023-11-22T03:39:45;12.85;;;7.63;;
59147;SDS011;44930;52.878;6.168;2023-11-22T03:42:16;14.15;;;8.93;;
59147;SDS011;44930;52.878;6.168;2023-11-22T03:44:42;14.07;;;8.65;;
59147;SDS011;44930;52.878;6.168;2023-11-22T03:47:09;16.52;;;10.02;;
59147;SDS011;44930;52.878;6.168;2023-11-22T03:49:36;13.65;;;9.70;;
59147;SDS011;44930;52.878;6.168;2023-11-22T03:52:01;13.70;;;8.85;;
59147;SDS011;44930;52.878;6.168;2023-11-22T03:54:27;12.35;;;8.13;;
59147;SDS011;44930;52.878;6.168;2023-11-22T03:56:53;13.40;;;8.25;;
59147;SDS011;44930;52.878;6.168;2023-11-22T03:59:19;16.23;;;9.57;;
59147;SDS011;44930;52.878;6.168;2023-11-22T04:01:44;14.93;;;8.07;;
59147;SDS011;44930;52.878;6.168;2023-11-22T04:04:10;12.07;;;8.15;;
59147;SDS011;44930;52.878;6.168;2023-11-22T04:06:36;15.52;;;8.75;;
59147;SDS011;44930;52.878;6.168;2023-11-22T04:09:02;17.23;;;9.32;;
59147;SDS011;44930;52.878;6.168;2023-11-22T04:11:28;14.45;;;8.82;;
59147;SDS011;44930;52.878;6.168;2023-11-22T04:13:54;14.10;;;9.40;;
59147;SDS011;44930;52.878;6.168;2023-11-22T04:16:20;12.10;;;8.18;;
59147;SDS011;44930;52.878;6.168;2023-11-22T04:18:46;12.95;;;7.88;;
59147;SDS011;44930;52.878;6.168;2023-11-22T04:21:12;14.35;;;8.35;;
59147;SDS011;44930;52.878;6.168;2023-11-22T04:23:38;98.35;;;7.93;;
59147;SDS011;44930;52.878;6.168;2023-11-22T04:26:03;203.70;;;11.95;;
59147;SDS011;44930;52.878;6.168;2023-11-22T04:28:32;22.35;;;8.52;;
59147;SDS011;44930;52.878;6.168;2023-11-22T04:30:58;14.95;;;9.10;;
59147;SDS011;44930;52.878;6.168;2023-11-22T04:33:24;13.80;;;8.55;;
59147;SDS011;44930;52.878;6.168;2023-11-22T04:35:53;15.52;;;8.70;;
59147;SDS011;44930;52.878;6.168;2023-11-22T04:38:19;13.63;;;8.15;;
59147;SDS011;44930;52.878;6.168;2023-11-22T04:40:45;11.68;;;6.72;;
59147;SDS011;44930;52.878;6.168;2023-11-22T04:43:11;12.10;;;7.38;;
59147;SDS011;44930;52.878;6.168;2023-11-22T04:45:37;16.10;;;8.25;;
59147;SDS011;44930;52.878;6.168;2023-11-22T04:48:04;14.88;;;8.45;;
59147;SDS011;44930;52.878;6.168;2023-11-22T04:50:31;10.82;;;7.15;;
59147;SDS011;44930;52.878;6.168;2023-11-22T04:52:57;11.15;;;6.32;;
59147;SDS011;44930;52.878;6.168;2023-11-22T04:55:23;12.38;;;7.63;;
59147;SDS011;44930;52.878;6.168;2023-11-22T04:57:50;14.13;;;8.40;;
59147;SDS011;44930;52.878;6.168;2023-11-22T05:00:16;16.95;;;8.88;;
59147;SDS011;44930;52.878;6.168;2023-11-22T05:02:42;11.20;;;7.57;;
59147;SDS011;44930;52.878;6.168;2023-11-22T05:05:09;13.98;;;8.27;;
59147;SDS011;44930;52.878;6.168;2023-11-22T05:07:38;15.73;;;9.45;;
59147;SDS011;44930;52.878;6.168;2023-11-22T05:10:04;15.50;;;8.98;;
59147;SDS011;44930;52.878;6.168;2023-11-22T05:12:30;16.40;;;10.50;;
59147;SDS011;44930;52.878;6.168;2023-11-22T05:14:56;13.93;;;8.35;;
59147;SDS011;44930;52.878;6.168;2023-11-22T05:17:22;14.38;;;9.43;;
59147;SDS011;44930;52.878;6.168;2023-11-22T05:19:48;15.05;;;9.10;;
59147;SDS011;44930;52.878;6.168;2023-11-22T05:22:14;14.68;;;9.30;;
59147;SDS011;44930;52.878;6.168;2023-11-22T05:24:40;14.27;;;9.55;;
59147;SDS011;44930;52.878;6.168;2023-11-22T05:27:06;14.57;;;9.07;;
59147;SDS011;44930;52.878;6.168;2023-11-22T05:29:32;12.38;;;7.85;;
59147;SDS011;44930;52.878;6.168;2023-11-22T05:31:59;15.15;;;9.30;;
59147;SDS011;44930;52.878;6.168;2023-11-22T05:34:25;12.00;;;8.55;;
59147;SDS011;44930;52.878;6.168;2023-11-22T05:36:52;12.57;;;7.82;;
59147;SDS011;44930;52.878;6.168;2023-11-22T05:39:17;14.48;;;8.27;;
59147;SDS011;44930;52.878;6.168;2023-11-22T05:41:44;12.30;;;8.18;;
59147;SDS011;44930;52.878;6.168;2023-11-22T05:44:10;14.35;;;8.02;;
59147;SDS011;44930;52.878;6.168;2023-11-22T05:46:36;16.27;;;10.27;;
59147;SDS011;44930;52.878;6.168;2023-11-22T05:49:03;15.77;;;10.18;;
59147;SDS011;44930;52.878;6.168;2023-11-22T05:51:29;14.50;;;9.10;;
59147;SDS011;44930;52.878;6.168;2023-11-22T05:53:55;17.60;;;9.68;;
59147;SDS011;44930;52.878;6.168;2023-11-22T05:56:21;17.92;;;10.07;;
59147;SDS011;44930;52.878;6.168;2023-11-22T05:58:47;17.38;;;9.77;;
59147;SDS011;44930;52.878;6.168;2023-11-22T06:01:13;16.58;;;9.30;;
59147;SDS011;44930;52.878;6.168;2023-11-22T06:03:39;14.43;;;9.45;;
59147;SDS011;44930;52.878;6.168;2023-11-22T06:06:05;15.35;;;10.43;;
59147;SDS011;44930;52.878;6.168;2023-11-22T06:08:31;17.85;;;10.85;;
59147;SDS011;44930;52.878;6.168;2023-11-22T06:10:58;16.52;;;10.27;;
59147;SDS011;44930;52.878;6.168;2023-11-22T06:13:24;20.35;;;10.68;;
59147;SDS011;44930;52.878;6.168;2023-11-22T06:15:50;16.27;;;10.70;;
59147;SDS011;44930;52.878;6.168;2023-11-22T06:18:16;19.05;;;11.60;;
59147;SDS011;44930;52.878;6.168;2023-11-22T06:20:43;19.73;;;12.35;;
59147;SDS011;44930;52.878;6.168;2023-11-22T06:23:09;16.83;;;11.05;;
59147;SDS011;44930;52.878;6.168;2023-11-22T06:25:35;20.95;;;11.32;;
59147;SDS011;44930;52.878;6.168;2023-11-22T06:28:07;19.67;;;11.48;;
59147;SDS011;44930;52.878;6.168;2023-11-22T06:30:32;21.05;;;11.63;;
59147;SDS011;44930;52.878;6.168;2023-11-22T06:33:00;22.15;;;12.07;;
59147;SDS011;44930;52.878;6.168;2023-11-22T06:35:26;21.55;;;12.20;;
59147;SDS011;44930;52.878;6.168;2023-11-22T06:37:52;19.08;;;11.95;;
59147;SDS011;44930;52.878;6.168;2023-11-22T06:40:18;18.90;;;12.60;;
59147;SDS011;44930;52.878;6.168;2023-11-22T06:42:45;20.05;;;11.88;;
59147;SDS011;44930;52.878;6.168;2023-11-22T06:45:11;20.02;;;12.35;;
59147;SDS011;44930;52.878;6.168;2023-11-22T06:47:41;19.65;;;12.73;;
59147;SDS011;44930;52.878;6.168;2023-11-22T06:50:07;22.60;;;11.95;;
59147;SDS011;44930;52.878;6.168;2023-11-22T06:52:37;22.05;;;12.80;;
59147;SDS011;44930;52.878;6.168;2023-11-22T06:55:03;20.35;;;12.27;;
59147;SDS011;44930;52.878;6.168;2023-11-22T06:57:30;23.23;;;14.43;;
59147;SDS011;44930;52.878;6.168;2023-11-22T06:59:56;27.40;;;13.40;;
59147;SDS011;44930;52.878;6.168;2023-11-22T07:02:22;21.50;;;13.48;;
59147;SDS011;44930;52.878;6.168;2023-11-22T07:04:48;24.60;;;13.52;;
59147;SDS011;44930;52.878;6.168;2023-11-22T07:07:13;22.50;;;13.88;;
59147;SDS011;44930;52.878;6.168;2023-11-22T07:09:43;22.95;;;13.07;;
59147;SDS011;44930;52.878;6.168;2023-11-22T07:12:09;21.70;;;12.63;;
59147;SDS011;44930;52.878;6.168;2023-11-22T07:14:35;22.58;;;13.38;;
59147;SDS011;44930;52.878;6.168;2023-11-22T07:17:01;23.00;;;13.13;;
59147;SDS011;44930;52.878;6.168;2023-11-22T07:19:27;23.42;;;13.40;;
59147;SDS011;44930;52.878;6.168;2023-11-22T07:21:53;25.50;;;14.25;;
59147;SDS011;44930;52.878;6.168;2023-11-22T07:24:19;26.65;;;13.52;;
59147;SDS011;44930;52.878;6.168;2023-11-22T07:26:46;22.05;;;12.63;;
59147;SDS011;44930;52.878;6.168;2023-11-22T07:29:12;25.25;;;14.32;;
59147;SDS011;44930;52.878;6.168;2023-11-22T07:31:38;22.05;;;12.60;;
59147;SDS011;44930;52.878;6.168;2023-11-22T07:34:04;23.30;;;13.15;;
59147;SDS011;44930;52.878;6.168;2023-11-22T07:36:31;24.30;;;13.10;;
59147;SDS011;44930;52.878;6.168;2023-11-22T07:38:57;23.98;;;13.25;;
59147;SDS011;44930;52.878;6.168;2023-11-22T07:41:22;26.40;;;14.60;;
59147;SDS011;44930;52.878;6.168;2023-11-22T07:43:48;23.35;;;13.35;;
59147;SDS011;44930;52.878;6.168;2023-11-22T07:46:14;21.75;;;13.48;;
59147;SDS011;44930;52.878;6.168;2023-11-22T07:48:42;26.20;;;13.90;;
59147;SDS011;44930;52.878;6.168;2023-11-22T07:51:08;26.02;;;14.18;;
59147;SDS011;44930;52.878;6.168;2023-11-22T07:53:34;24.17;;;13.38;;
59147;SDS011;44930;52.878;6.168;2023-11-22T07:56:00;23.67;;;13.90;;
59147;SDS011;44930;52.878;6.168;2023-11-22T07:58:32;23.65;;;14.40;;
59147;SDS011;44930;52.878;6.168;2023-11-22T08:00:58;22.85;;;12.73;;
59147;SDS011;44930;52.878;6.168;2023-11-22T08:03:24;22.63;;;14.32;;
59147;SDS011;44930;52.878;6.168;2023-11-22T08:05:51;24.67;;;14.80;;
59147;SDS011;44930;52.878;6.168;2023-11-22T08:08:19;26.55;;;14.50;;
59147;SDS011;44930;52.878;6.168;2023-11-22T08:10:45;26.50;;;14.93;;
59147;SDS011;44930;52.878;6.168;2023-11-22T08:13:13;24.60;;;16.17;;
59147;SDS011;44930;52.878;6.168;2023-11-22T08:15:40;23.02;;;14.57;;
59147;SDS011;44930;52.878;6.168;2023-11-22T08:18:06;23.75;;;13.98;;
59147;SDS011;44930;52.878;6.168;2023-11-22T08:20:31;25.30;;;14.35;;
59147;SDS011;44930;52.878;6.168;2023-11-22T08:22:57;25.05;;;14.32;;
59147;SDS011;44930;52.878;6.168;2023-11-22T08:25:22;27.98;;;14.73;;
59147;SDS011;44930;52.878;6.168;2023-11-22T08:27:48;27.52;;;15.50;;
59147;SDS011;44930;52.878;6.168;2023-11-22T08:30:14;25.73;;;13.77;;
59147;SDS011;44930;52.878;6.168;2023-11-22T08:32:43;25.23;;;14.55;;
59147;SDS011;44930;52.878;6.168;2023-11-22T08:35:13;24.23;;;14.63;;
59147;SDS011;44930;52.878;6.168;2023-11-22T08:37:40;23.35;;;14.68;;
59147;SDS011;44930;52.878;6.168;2023-11-22T08:40:07;25.27;;;14.52;;
59147;SDS011;44930;52.878;6.168;2023-11-22T08:42:36;22.48;;;14.20;;
59147;SDS011;44930;52.878;6.168;2023-11-22T08:45:02;24.20;;;15.13;;
59147;SDS011;44930;52.878;6.168;2023-11-22T08:47:28;25.52;;;15.00;;
59147;SDS011;44930;52.878;6.168;2023-11-22T08:49:56;30.80;;;15.32;;
59147;SDS011;44930;52.878;6.168;2023-11-22T08:52:22;24.75;;;14.88;;
59147;SDS011;44930;52.878;6.168;2023-11-22T08:54:48;26.65;;;15.02;;
59147;SDS011;44930;52.878;6.168;2023-11-22T08:57:15;25.27;;;14.60;;
59147;SDS011;44930;52.878;6.168;2023-11-22T08:59:40;27.40;;;16.92;;
59147;SDS011;44930;52.878;6.168;2023-11-22T09:02:06;24.35;;;14.80;;
59147;SDS011;44930;52.878;6.168;2023-11-22T09:04:37;26.10;;;15.48;;
59147;SDS011;44930;52.878;6.168;2023-11-22T09:07:03;25.27;;;14.85;;
59147;SDS011;44930;52.878;6.168;2023-11-22T09:09:30;24.73;;;14.88;;
59147;SDS011;44930;52.878;6.168;2023-11-22T09:11:59;26.25;;;15.15;;
59147;SDS011;44930;52.878;6.168;2023-11-22T09:14:25;28.98;;;15.20;;
59147;SDS011;44930;52.878;6.168;2023-11-22T09:16:51;26.23;;;14.27;;
59147;SDS011;44930;52.878;6.168;2023-11-22T09:19:23;24.55;;;15.35;;
59147;SDS011;44930;52.878;6.168;2023-11-22T09:21:50;27.92;;;16.10;;
59147;SDS011;44930;52.878;6.168;2023-11-22T09:24:16;26.88;;;15.30;;
59147;SDS011;44930;52.878;6.168;2023-11-22T09:26:41;24.10;;;14.38;;
59147;SDS011;44930;52.878;6.168;2023-11-22T09:29:08;27.10;;;15.98;;
59147;SDS011;44930;52.878;6.168;2023-11-22T09:31:39;26.25;;;16.08;;
59147;SDS011;44930;52.878;6.168;2023-11-22T09:34:05;24.05;;;14.27;;
59147;SDS011;44930;52.878;6.168;2023-11-22T09:36:30;23.80;;;14.77;;
59147;SDS011;44930;52.878;6.168;2023-11-22T09:38:59;28.27;;;14.88;;
59147;SDS011;44930;52.878;6.168;2023-11-22T09:41:24;22.70;;;14.50;;
59147;SDS011;44930;52.878;6.168;2023-11-22T09:43:52;25.92;;;16.33;;
59147;SDS011;44930;52.878;6.168;2023-11-22T09:46:23;24.35;;;15.45;;
59147;SDS011;44930;52.878;6.168;2023-11-22T09:48:50;25.42;;;16.08;;
59147;SDS011;44930;52.878;6.168;2023-11-22T09:53:58;28.45;;;15.93;;
59147;SDS011;44930;52.878;6.168;2023-11-22T09:56:29;25.67;;;15.95;;
59147;SDS011;44930;52.878;6.168;2023-11-22T09:58:57;23.85;;;14.85;;
59147;SDS011;44930;52.878;6.168;2023-11-22T10:01:25;23.10;;;14.48;;
59147;SDS011;44930;52.878;6.168;2023-11-22T10:03:54;26.85;;;14.73;;
59147;SDS011;44930;52.878;6.168;2023-11-22T10:06:21;27.00;;;15.07;;
59147;SDS011;44930;52.878;6.168;2023-11-22T10:08:46;27.13;;;15.13;;
59147;SDS011;44930;52.878;6.168;2023-11-22T10:11:14;23.90;;;14.95;;
59147;SDS011;44930;52.878;6.168;2023-11-22T10:13:42;24.80;;;14.73;;
59147;SDS011;44930;52.878;6.168;2023-11-22T10:16:11;22.63;;;14.05;;
59147;SDS011;44930;52.878;6.168;2023-11-22T10:18:42;20.58;;;13.93;;
59147;SDS011;44930;52.878;6.168;2023-11-22T10:21:18;21.67;;;13.98;;
59147;SDS011;44930;52.878;6.168;2023-11-22T10:23:44;19.55;;;13.35;;
59147;SDS011;44930;52.878;6.168;2023-11-22T10:26:10;19.65;;;13.88;;
59147;SDS011;44930;52.878;6.168;2023-11-22T10:28:36;21.65;;;14.30;;
59147;SDS011;44930;52.878;6.168;2023-11-22T10:31:04;18.60;;;13.45;;
59147;SDS011;44930;52.878;6.168;2023-11-22T10:33:32;19.35;;;13.23;;
59147;SDS011;44930;52.878;6.168;2023-11-22T10:35:58;22.65;;;13.35;;
59147;SDS011;44930;52.878;6.168;2023-11-22T10:38:23;21.90;;;13.38;;
59147;SDS011;44930;52.878;6.168;2023-11-22T10:40:50;18.65;;;12.80;;
59147;SDS011;44930;52.878;6.168;2023-11-22T10:43:20;18.83;;;12.75;;
59147;SDS011;44930;52.878;6.168;2023-11-22T10:45:48;22.05;;;13.07;;
59147;SDS011;44930;52.878;6.168;2023-11-22T10:48:16;20.13;;;13.00;;
59147;SDS011;44930;52.878;6.168;2023-11-22T10:50:45;22.80;;;13.30;;
59147;SDS011;44930;52.878;6.168;2023-11-22T10:53:13;18.67;;;11.88;;
59147;SDS011;44930;52.878;6.168;2023-11-22T10:55:47;24.65;;;13.25;;
59147;SDS011;44930;52.878;6.168;2023-11-22T10:58:14;20.42;;;12.35;;
59147;SDS011;44930;52.878;6.168;2023-11-22T11:00:41;19.42;;;12.05;;
59147;SDS011;44930;52.878;6.168;2023-11-22T11:03:10;15.82;;;11.35;;
59147;SDS011;44930;52.878;6.168;2023-11-22T11:05:41;21.30;;;12.48;;
59147;SDS011;44930;52.878;6.168;2023-11-22T11:08:12;17.20;;;11.25;;
59147;SDS011;44930;52.878;6.168;2023-11-22T11:10:42;16.83;;;11.35;;
59147;SDS011;44930;52.878;6.168;2023-11-22T11:13:10;13.95;;;10.80;;
59147;SDS011;44930;52.878;6.168;2023-11-22T11:15:36;19.17;;;11.68;;
59147;SDS011;44930;52.878;6.168;2023-11-22T11:18:08;16.02;;;11.23;;
59147;SDS011;44930;52.878;6.168;2023-11-22T11:20:51;16.05;;;10.82;;
59147;SDS011;44930;52.878;6.168;2023-11-22T11:23:22;24.30;;;14.60;;
59147;SDS011;44930;52.878;6.168;2023-11-22T11:25:55;15.45;;;10.73;;
59147;SDS011;44930;52.878;6.168;2023-11-22T11:28:24;16.35;;;11.32;;
59147;SDS011;44930;52.878;6.168;2023-11-22T11:30:51;14.18;;;10.13;;
59147;SDS011;44930;52.878;6.168;2023-11-22T11:33:27;16.30;;;10.75;;
59147;SDS011;44930;52.878;6.168;2023-11-22T11:35:58;15.40;;;10.63;;
59147;SDS011;44930;52.878;6.168;2023-11-22T11:38:31;15.25;;;10.52;;
59147;SDS011;44930;52.878;6.168;2023-11-22T11:41:09;12.95;;;10.00;;
59147;SDS011;44930;52.878;6.168;2023-11-22T11:43:42;14.02;;;10.63;;
59147;SDS011;44930;52.878;6.168;2023-11-22T11:46:10;15.07;;;10.27;;
59147;SDS011;44930;52.878;6.168;2023-11-22T11:48:36;15.30;;;9.98;;
59147;SDS011;44930;52.878;6.168;2023-11-22T11:51:02;19.45;;;11.52;;
59147;SDS011;44930;52.878;6.168;2023-11-22T11:53:28;13.75;;;9.70;;
59147;SDS011;44930;52.878;6.168;2023-11-22T11:55:56;17.60;;;10.35;;
59147;SDS011;44930;52.878;6.168;2023-11-22T11:58:23;13.23;;;8.88;;
59147;SDS011;44930;52.878;6.168;2023-11-22T12:00:50;14.13;;;8.38;;
59147;SDS011;44930;52.878;6.168;2023-11-22T12:03:17;13.15;;;9.75;;
59147;SDS011;44930;52.878;6.168;2023-11-22T12:05:46;13.38;;;9.80;;
59147;SDS011;44930;52.878;6.168;2023-11-22T12:08:14;14.55;;;9.73;;
59147;SDS011;44930;52.878;6.168;2023-11-22T12:10:41;12.68;;;9.38;;
59147;SDS011;44930;52.878;6.168;2023-11-22T12:13:07;11.48;;;8.68;;
59147;SDS011;44930;52.878;6.168;2023-11-22T12:15:33;12.13;;;8.45;;
59147;SDS011;44930;52.878;6.168;2023-11-22T12:17:59;11.65;;;8.65;;
59147;SDS011;44930;52.878;6.168;2023-11-22T12:20:26;12.07;;;8.23;;
59147;SDS011;44930;52.878;6.168;2023-11-22T12:22:57;12.57;;;8.77;;
59147;SDS011;44930;52.878;6.168;2023-11-22T12:25:26;11.75;;;9.32;;
59147;SDS011;44930;52.878;6.168;2023-11-22T12:27:53;11.00;;;8.55;;
59147;SDS011;44930;52.878;6.168;2023-11-22T12:30:32;12.35;;;8.55;;
59147;SDS011;44930;52.878;6.168;2023-11-22T12:33:04;13.57;;;9.25;;
59147;SDS011;44930;52.878;6.168;2023-11-22T12:35:31;11.93;;;8.50;;
59147;SDS011;44930;52.878;6.168;2023-11-22T12:37:59;12.48;;;8.93;;
59147;SDS011;44930;52.878;6.168;2023-11-22T12:40:26;11.52;;;8.75;;
59147;SDS011;44930;52.878;6.168;2023-11-22T12:42:58;12.88;;;10.02;;
59147;SDS011;44930;52.878;6.168;2023-11-22T12:45:26;15.00;;;9.52;;
59147;SDS011;44930;52.878;6.168;2023-11-22T12:47:54;18.20;;;9.80;;
59147;SDS011;44930;52.878;6.168;2023-11-22T12:53:15;13.20;;;8.85;;
59147;SDS011;44930;52.878;6.168;2023-11-22T12:55:45;12.30;;;9.18;;
59147;SDS011;44930;52.878;6.168;2023-11-22T12:58:13;12.85;;;9.13;;
59147;SDS011;44930;52.878;6.168;2023-11-22T13:00:39;12.18;;;9.52;;
59147;SDS011;44930;52.878;6.168;2023-11-22T13:03:08;14.52;;;9.68;;
59147;SDS011;44930;52.878;6.168;2023-11-22T13:05:38;13.15;;;9.55;;
59147;SDS011;44930;52.878;6.168;2023-11-22T13:08:07;13.60;;;9.85;;
59147;SDS011;44930;52.878;6.168;2023-11-22T13:10:36;15.32;;;9.70;;
59147;SDS011;44930;52.878;6.168;2023-11-22T13:13:01;14.63;;;10.25;;
59147;SDS011;44930;52.878;6.168;2023-11-22T13:15:27;12.35;;;9.70;;
59147;SDS011;44930;52.878;6.168;2023-11-22T13:17:53;11.75;;;8.93;;
59147;SDS011;44930;52.878;6.168;2023-11-22T13:20:23;15.05;;;10.40;;
59147;SDS011;44930;52.878;6.168;2023-11-22T13:22:52;14.30;;;9.93;;
59147;SDS011;44930;52.878;6.168;2023-11-22T13:25:18;12.98;;;9.95;;
59147;SDS011;44930;52.878;6.168;2023-11-22T13:27:48;15.07;;;10.07;;
59147;SDS011;44930;52.878;6.168;2023-11-22T13:30:17;12.88;;;9.73;;
59147;SDS011;44930;52.878;6.168;2023-11-22T13:32:51;14.73;;;9.98;;
59147;SDS011;44930;52.878;6.168;2023-11-22T13:35:19;16.48;;;10.57;;
59147;SDS011;44930;52.878;6.168;2023-11-22T13:37:45;17.88;;;10.80;;
59147;SDS011;44930;52.878;6.168;2023-11-22T13:40:11;13.13;;;10.10;;
59147;SDS011;44930;52.878;6.168;2023-11-22T13:42:42;16.38;;;11.48;;
59147;SDS011;44930;52.878;6.168;2023-11-22T13:45:11;17.50;;;11.35;;
59147;SDS011;44930;52.878;6.168;2023-11-22T13:47:45;14.10;;;10.55;;
59147;SDS011;44930;52.878;6.168;2023-11-22T13:50:16;16.17;;;10.90;;
59147;SDS011;44930;52.878;6.168;2023-11-22T13:52:50;20.30;;;11.98;;
59147;SDS011;44930;52.878;6.168;2023-11-22T13:55:16;16.35;;;11.35;;
59147;SDS011;44930;52.878;6.168;2023-11-22T13:57:47;17.63;;;11.93;;
59147;SDS011;44930;52.878;6.168;2023-11-22T14:00:14;14.98;;;11.10;;
59147;SDS011;44930;52.878;6.168;2023-11-22T14:02:47;17.42;;;11.98;;
59147;SDS011;44930;52.878;6.168;2023-11-22T14:05:27;16.88;;;11.13;;
59147;SDS011;44930;52.878;6.168;2023-11-22T14:07:54;14.85;;;9.88;;
59147;SDS011;44930;52.878;6.168;2023-11-22T14:10:20;16.15;;;11.60;;
59147;SDS011;44930;52.878;6.168;2023-11-22T14:12:47;15.63;;;10.60;;
59147;SDS011;44930;52.878;6.168;2023-11-22T14:15:13;14.73;;;10.30;;
59147;SDS011;44930;52.878;6.168;2023-11-22T14:17:39;15.60;;;10.52;;
59147;SDS011;44930;52.878;6.168;2023-11-22T14:20:12;15.23;;;10.63;;
59147;SDS011;44930;52.878;6.168;2023-11-22T14:22:38;13.55;;;10.52;;
59147;SDS011;44930;52.878;6.168;2023-11-22T14:25:06;13.32;;;10.65;;
59147;SDS011;44930;52.878;6.168;2023-11-22T14:27:40;14.32;;;10.48;;
59147;SDS011;44930;52.878;6.168;2023-11-22T14:30:07;14.48;;;10.50;;
59147;SDS011;44930;52.878;6.168;2023-11-22T14:32:34;15.30;;;10.57;;